< Typhoon 200422 2004 Season Typhoon 200424 >
Typhoon 200423 (TOKAGE)
General InformationTrack Information on Google MapsDetailed Wind InformationAccess Analytics MapList of All Images || NewsDisaster Info.WeblogTrackbackTyphoon FrontResourceGoogle EarthGE AnimationAtom FeedGeoJSON
Detalied Best Track (Time Zone = UTC)
Year Month Day Hour Lat. Long. Pressure (hPa) Wind (kt) Class Image Chart
2004 10 12 00 12.0 151.0 1004 0 2 Image Chart
2004 10 12 06 13.1 149.6 1002 0 2 Image Chart
2004 10 12 12 13.7 147.5 1000 0 2 Image Chart
2004 10 12 18 14.2 145.5 998 0 2 Image Chart
2004 10 13 00 14.3 143.9 994 40 3 Image Chart
2004 10 13 06 14.2 141.9 985 45 3 Image Chart
2004 10 13 12 14.0 140.4 985 50 4 Image Chart
2004 10 13 18 13.9 139.1 980 55 4 Image Chart
2004 10 14 00 13.8 138.3 980 55 4 Image Chart
2004 10 14 06 13.7 137.6 975 60 4 Image Chart
2004 10 14 12 13.7 136.6 970 65 5 Image Chart
2004 10 14 18 14.0 136.1 965 70 5 Image Chart
2004 10 15 00 14.5 135.6 955 75 5 Image Chart
2004 10 15 06 15.1 134.8 955 75 5 Image Chart
2004 10 15 12 15.5 134.4 955 75 5 Image Chart
2004 10 15 18 15.9 134.0 955 75 5 Image Chart
2004 10 16 00 16.6 134.0 955 75 5 Image Chart
2004 10 16 06 17.7 134.0 945 85 5 Image Chart
2004 10 16 12 18.4 133.0 940 85 5 Image Chart
2004 10 16 18 18.7 132.5 940 85 5 Image Chart
2004 10 17 00 19.3 131.8 940 85 5 Image Chart
2004 10 17 06 19.9 130.8 940 85 5 Image Chart
2004 10 17 12 20.3 130.1 940 85 5 Image Chart
2004 10 17 18 21.1 129.0 940 85 5 Image Chart
2004 10 18 00 21.6 128.1 945 85 5 Image Chart
2004 10 18 06 22.2 127.3 945 85 5 Image Chart
2004 10 18 09 22.7 127.0 950 80 5 Image Chart
2004 10 18 12 23.0 126.9 950 80 5 Image Chart
2004 10 18 15 23.3 126.9 950 80 5 Image Chart
2004 10 18 18 23.7 127.0 950 80 5 Image Chart
2004 10 18 21 24.2 127.1 950 80 5 Image Chart
2004 10 19 00 24.7 127.2 950 80 5 Image Chart
2004 10 19 03 25.3 127.5 950 80 5 Image Chart
2004 10 19 06 26.0 127.9 950 80 5 Image Chart
2004 10 19 09 26.7 128.3 950 80 5 Image Chart
2004 10 19 12 27.4 128.9 950 80 5 Image Chart
2004 10 19 15 28.2 129.6 950 80 5 Image Chart
2004 10 19 18 29.1 130.4 950 80 5 Image Chart
2004 10 19 21 30.1 131.3 950 80 5 Image Chart
2004 10 20 00 31.1 132.2 950 80 5 Image Chart
2004 10 20 03 32.4 132.7 950 80 5 Image Chart
2004 10 20 04 32.8 132.9 955 75 5 Image Chart
2004 10 20 06 33.4 133.9 955 75 5 Image Chart
2004 10 20 08 34.1 134.8 960 70 5 Image Chart
2004 10 20 09 34.8 135.7 970 70 5 Image Chart
2004 10 20 12 35.4 136.6 980 60 4 Image Chart
2004 10 20 15 35.7 138.3 985 50 4 Image Chart
2004 10 20 18 35.9 139.8 990 0 6 Image Chart
2004 10 21 00 37.6 143.3 992 0 6 Image Chart
2004 10 21 06 39.8 148.0 992 0 6 Image Chart
2004 10 21 12 42.1 153.2 994 0 6 Image Chart
2004 10 21 18 44.1 157.3 992 0 6 Image Chart
2004 10 22 00 46.8 162.4 990 0 6 Image Chart
2004 10 22 06 49.4 167.2 990 0 6 Image Chart
2004 10 22 12 51.4 172.6 988 0 6 Image Chart
2004 10 22 18 53.8 176.9 988 0 6 Image Chart
2004 10 23 00 57.3 182.2 986 0 6 Image Chart
Japan Meteorological Agency Best Track Data | Correction Date : 2006-01-18
< Typhoon 200422 2004 Season Typhoon 200424 >

Help